createdAt,value
2023-08-29T00:00:07.260Z,24.91
2023-08-29T00:03:17.159Z,25.19
2023-08-29T00:06:19.993Z,25.27
2023-08-29T00:09:23.360Z,25.41
2023-08-29T00:12:26.819Z,25.15
2023-08-29T00:15:29.648Z,25.20
2023-08-29T00:18:33.265Z,25.43
2023-08-29T00:21:36.776Z,25.51
2023-08-29T00:24:39.588Z,25.48
2023-08-29T00:27:43.258Z,25.32
2023-08-29T00:30:46.777Z,25.26
2023-08-29T00:33:49.453Z,25.14
2023-08-29T00:36:53.167Z,24.75
2023-08-29T00:39:56.094Z,24.79
2023-08-29T00:43:04.094Z,24.93
2023-08-29T00:46:08.345Z,25.17
2023-08-29T00:49:14.664Z,25.24
2023-08-29T00:52:17.461Z,25.19
2023-08-29T00:55:20.196Z,24.84
2023-08-29T00:58:23.153Z,24.95
2023-08-29T01:01:26.796Z,25.32
2023-08-29T01:04:32.679Z,25.22
2023-08-29T01:07:36.412Z,25.08
2023-08-29T01:11:30.506Z,24.72
2023-08-29T01:14:43.896Z,24.74
2023-08-29T01:17:50.577Z,24.69
2023-08-29T01:21:01.482Z,24.82
2023-08-29T01:24:23.177Z,24.38
2023-08-29T01:27:26.835Z,24.53
2023-08-29T01:30:30.562Z,24.56
2023-08-29T01:33:34.153Z,24.50
2023-08-29T01:36:41.744Z,24.75
2023-08-29T01:39:44.511Z,24.72
2023-08-29T01:42:47.915Z,24.75
2023-08-29T01:45:50.860Z,24.94
2023-08-29T01:48:54.613Z,24.73
2023-08-29T01:51:57.901Z,24.65
2023-08-29T01:55:01.501Z,24.42
2023-08-29T01:58:06.805Z,24.03
2023-08-29T02:01:22.972Z,24.35
2023-08-29T02:04:27.452Z,24.24
2023-08-29T02:07:30.159Z,24.52
2023-08-29T02:10:37.208Z,24.48
2023-08-29T02:13:40.882Z,24.38
2023-08-29T02:16:43.868Z,24.55
2023-08-29T02:19:50.610Z,24.65
2023-08-29T02:22:54.001Z,24.47
2023-08-29T02:26:06.971Z,23.81
2023-08-29T02:29:10.415Z,24.02
2023-08-29T02:32:13.061Z,24.12
2023-08-29T02:35:15.805Z,24.34
2023-08-29T02:38:18.557Z,24.32
2023-08-29T02:41:21.955Z,24.35
2023-08-29T02:44:24.600Z,23.77
2023-08-29T02:47:28.003Z,24.04
2023-08-29T02:50:30.833Z,24.27
2023-08-29T02:53:33.606Z,24.44
2023-08-29T02:56:36.320Z,24.51
2023-08-29T02:59:41.428Z,24.51
2023-08-29T03:02:45.153Z,24.41
2023-08-29T03:05:58.586Z,24.23
2023-08-29T03:09:02.484Z,24.06
2023-08-29T03:12:05.512Z,24.30
2023-08-29T03:15:09.006Z,24.27
2023-08-29T03:18:12.021Z,24.08
2023-08-29T03:21:15.568Z,23.77
2023-08-29T03:24:18.666Z,23.84
2023-08-29T03:27:22.312Z,23.86
2023-08-29T03:30:28.172Z,23.94
2023-08-29T03:33:31.993Z,23.97
2023-08-29T03:36:34.784Z,24.39
2023-08-29T03:39:38.195Z,24.28
2023-08-29T03:42:42.564Z,24.19
2023-08-29T03:45:46.061Z,23.88
2023-08-29T03:48:49.560Z,23.73
2023-08-29T03:51:53.104Z,24.07
2023-08-29T03:54:57.056Z,24.14
2023-08-29T03:57:59.836Z,24.22
2023-08-29T04:01:05.067Z,23.87
2023-08-29T04:04:08.331Z,23.96
2023-08-29T04:07:12.482Z,23.86
2023-08-29T04:10:15.271Z,23.72
2023-08-29T04:13:18.673Z,23.75
2023-08-29T04:16:24.943Z,23.69
2023-08-29T04:19:28.240Z,24.04
2023-08-29T04:22:31.009Z,24.20
2023-08-29T04:25:37.642Z,24.21
2023-08-29T04:28:41.064Z,24.42
2023-08-29T04:31:45.025Z,24.42
2023-08-29T04:34:48.647Z,24.10
2023-08-29T04:37:51.499Z,24.42
2023-08-29T04:40:55.186Z,24.52
2023-08-29T04:43:58.587Z,24.45
2023-08-29T04:47:02.228Z,24.47
2023-08-29T04:50:06.369Z,24.63
2023-08-29T04:53:09.067Z,24.76
2023-08-29T04:56:12.302Z,24.85
2023-08-29T04:59:15.056Z,24.81
2023-08-29T05:02:18.649Z,24.76
2023-08-29T05:05:22.522Z,24.83
2023-08-29T05:08:26.256Z,24.94
2023-08-29T05:11:29.743Z,25.08
2023-08-29T05:14:32.735Z,25.14
2023-08-29T05:17:36.211Z,24.61
2023-08-29T05:20:40.163Z,24.36
2023-08-29T05:23:42.804Z,24.55
2023-08-29T05:26:46.812Z,24.72
2023-08-29T05:29:50.360Z,24.43
2023-08-29T05:32:55.776Z,24.14
2023-08-29T05:35:58.779Z,24.62
2023-08-29T05:39:01.737Z,24.59
2023-08-29T05:42:04.935Z,24.76
2023-08-29T05:45:08.145Z,24.83
2023-08-29T05:48:11.137Z,24.85
2023-08-29T05:51:14.028Z,24.99
2023-08-29T05:54:16.860Z,25.10
2023-08-29T05:57:19.734Z,25.19
2023-08-29T06:00:22.705Z,25.21
2023-08-29T06:03:26.589Z,25.28
2023-08-29T06:06:30.165Z,25.32
2023-08-29T06:09:34.566Z,25.49
2023-08-29T06:12:37.275Z,25.44
2023-08-29T06:15:40.745Z,25.38
2023-08-29T06:18:44.742Z,25.50
2023-08-29T06:21:48.205Z,25.41
2023-08-29T06:24:51.848Z,25.32
2023-08-29T06:27:55.254Z,25.08
2023-08-29T06:30:58.006Z,24.98
2023-08-29T06:34:01.395Z,24.71
2023-08-29T06:37:04.407Z,24.77
2023-08-29T06:40:11.329Z,24.63
2023-08-29T06:43:14.081Z,24.84
2023-08-29T06:46:18.085Z,24.78
2023-08-29T06:49:20.798Z,24.87
2023-08-29T06:52:23.748Z,24.97
2023-08-29T06:55:28.361Z,24.92
2023-08-29T06:58:32.017Z,24.76
2023-08-29T07:01:35.509Z,24.91
2023-08-29T07:04:39.373Z,24.79
2023-08-29T07:07:42.129Z,24.67
2023-08-29T07:10:44.860Z,24.13
2023-08-29T07:13:51.111Z,24.09
2023-08-29T07:17:09.475Z,23.80
2023-08-29T07:20:13.551Z,23.66
2023-08-29T07:23:17.529Z,23.62
2023-08-29T07:26:20.414Z,23.36
2023-08-29T07:29:24.497Z,23.43
2023-08-29T07:32:27.736Z,23.60
2023-08-29T07:35:41.469Z,23.66
2023-08-29T07:38:49.532Z,23.62
2023-08-29T07:41:56.638Z,23.72
2023-08-29T07:44:59.536Z,23.75
2023-08-29T07:48:04.097Z,23.78
2023-08-29T07:51:08.147Z,23.79
2023-08-29T07:54:12.334Z,23.31
2023-08-29T07:57:15.663Z,23.41
2023-08-29T08:00:30.601Z,23.11
2023-08-29T08:03:34.278Z,23.42
2023-08-29T08:06:38.382Z,23.57
2023-08-29T08:09:43.331Z,23.57
2023-08-29T08:12:50.698Z,23.39
2023-08-29T08:15:53.625Z,23.66
2023-08-29T08:18:56.475Z,23.63
2023-08-29T08:22:00.211Z,23.73
2023-08-29T08:25:05.475Z,23.78
2023-08-29T08:28:08.622Z,23.54
2023-08-29T08:31:11.860Z,23.32
2023-08-29T08:34:14.673Z,23.70
2023-08-29T08:37:18.032Z,23.68
2023-08-29T08:40:22.349Z,23.69
2023-08-29T08:43:26.664Z,23.44
2023-08-29T08:46:39.770Z,23.39
2023-08-29T08:49:56.356Z,23.31
2023-08-29T08:53:05.388Z,22.69
2023-08-29T08:56:09.638Z,22.58
2023-08-29T08:59:12.423Z,22.48
2023-08-29T09:02:20.589Z,22.45
2023-08-29T09:05:26.205Z,22.20
2023-08-29T09:08:35.376Z,21.95
2023-08-29T09:11:43.256Z,21.97
2023-08-29T09:14:47.027Z,21.99
2023-08-29T09:17:52.599Z,22.15
2023-08-29T09:20:59.655Z,21.89
2023-08-29T09:24:02.526Z,22.16
2023-08-29T09:27:11.047Z,21.95
2023-08-29T09:30:18.673Z,22.05
2023-08-29T09:33:25.730Z,22.13
2023-08-29T09:36:29.452Z,22.42
2023-08-29T09:39:32.482Z,22.69
2023-08-29T09:42:35.465Z,22.34
2023-08-29T09:45:39.297Z,22.28
2023-08-29T09:48:58.193Z,22.49
2023-08-29T09:52:02.598Z,22.69
2023-08-29T09:55:09.824Z,22.73
2023-08-29T09:58:16.236Z,22.71
2023-08-29T10:01:20.542Z,22.79
2023-08-29T10:04:27.836Z,22.69
2023-08-29T10:07:40.020Z,22.73
2023-08-29T10:10:46.469Z,22.57
2023-08-29T10:13:50.143Z,22.76
2023-08-29T10:16:55.385Z,22.73
2023-08-29T10:20:03.421Z,22.65
2023-08-29T10:23:08.604Z,22.59
2023-08-29T10:26:11.700Z,22.37
2023-08-29T10:29:14.704Z,22.61
2023-08-29T10:32:18.936Z,22.49
2023-08-29T10:35:27.309Z,22.46
2023-08-29T10:38:31.887Z,22.65
2023-08-29T10:41:50.115Z,22.64
2023-08-29T10:44:55.020Z,22.87
2023-08-29T10:47:58.654Z,23.10
2023-08-29T10:51:20.644Z,23.61
2023-08-29T10:54:30.926Z,23.78
2023-08-29T10:57:34.309Z,23.90
2023-08-29T11:00:43.890Z,23.74
2023-08-29T11:03:50.036Z,24.61
2023-08-29T11:07:04.041Z,25.19
2023-08-29T11:10:42.767Z,25.06
2023-08-29T11:14:05.308Z,24.89
2023-08-29T11:17:13.227Z,24.95
2023-08-29T11:20:18.483Z,25.04
2023-08-29T11:23:23.351Z,25.32
2023-08-29T11:26:28.181Z,24.10
2023-08-29T11:29:39.019Z,24.87
2023-08-29T11:32:42.064Z,25.29
2023-08-29T11:35:44.811Z,25.55
2023-08-29T11:38:49.469Z,25.86
2023-08-29T11:41:59.000Z,26.05
2023-08-29T11:45:47.479Z,26.29
2023-08-29T11:49:17.270Z,26.43
2023-08-29T11:52:20.304Z,26.49
2023-08-29T11:55:26.804Z,26.66
2023-08-29T11:58:31.099Z,26.01
2023-08-29T12:01:40.166Z,26.61
2023-08-29T12:04:49.133Z,27.19
2023-08-29T12:07:54.752Z,27.40
2023-08-29T12:10:57.530Z,27.82
2023-08-29T12:14:08.670Z,28.14
2023-08-29T12:17:55.818Z,27.82
2023-08-29T12:21:12.863Z,27.85
2023-08-29T12:24:15.658Z,27.85
2023-08-29T12:27:18.330Z,27.65
2023-08-29T12:30:21.661Z,28.34
2023-08-29T12:33:25.248Z,28.59
2023-08-29T12:36:28.940Z,28.75
2023-08-29T12:39:32.847Z,28.13
2023-08-29T12:42:37.202Z,28.32
2023-08-29T12:45:52.854Z,28.67
2023-08-29T12:48:59.952Z,28.19
2023-08-29T12:52:03.415Z,28.80
2023-08-29T12:55:06.396Z,27.90
2023-08-29T12:58:09.441Z,28.62
2023-08-29T13:01:14.900Z,29.15
2023-08-29T13:04:22.970Z,29.13
2023-08-29T13:07:25.644Z,30.54
2023-08-29T13:10:30.108Z,30.67
2023-08-29T13:13:33.001Z,30.17
2023-08-29T13:16:36.906Z,30.97
2023-08-29T13:19:41.150Z,30.46
2023-08-29T13:22:50.580Z,30.78
2023-08-29T13:25:53.429Z,30.65
2023-08-29T13:28:57.596Z,30.79
2023-08-29T13:32:00.496Z,30.36
2023-08-29T13:35:04.959Z,30.01
2023-08-29T13:38:08.804Z,29.64
2023-08-29T13:41:11.788Z,31.72
2023-08-29T13:44:14.556Z,31.30
2023-08-29T13:47:17.414Z,29.63
2023-08-29T13:50:20.470Z,29.80
2023-08-29T13:53:25.835Z,29.53
2023-08-29T13:56:29.529Z,29.30
2023-08-29T13:59:32.668Z,29.14
2023-08-29T14:02:35.584Z,28.53
2023-08-29T14:05:38.364Z,28.85
2023-08-29T14:08:41.897Z,28.75
2023-08-29T14:11:44.613Z,28.01
2023-08-29T14:14:47.310Z,28.76
2023-08-29T14:17:52.313Z,29.02
2023-08-29T14:20:55.058Z,28.80
2023-08-29T14:23:58.395Z,28.95
2023-08-29T14:27:01.145Z,29.27
2023-08-29T14:30:04.309Z,28.86
2023-08-29T14:33:07.978Z,29.12
2023-08-29T14:36:10.704Z,28.64
2023-08-29T14:39:13.775Z,28.88
2023-08-29T14:42:17.566Z,28.66
2023-08-29T14:45:20.948Z,28.35
2023-08-29T14:48:24.002Z,28.21
2023-08-29T14:51:27.297Z,27.74
2023-08-29T14:54:30.016Z,27.63
2023-08-29T14:57:33.094Z,26.89
2023-08-29T15:00:42.385Z,26.88
2023-08-29T15:03:46.044Z,27.54
2023-08-29T15:06:49.479Z,27.21
2023-08-29T15:09:52.931Z,27.43
2023-08-29T15:12:55.719Z,27.43
2023-08-29T15:16:05.949Z,27.46
2023-08-29T15:19:08.627Z,27.48
2023-08-29T15:22:11.356Z,27.37
2023-08-29T15:25:14.077Z,27.34
2023-08-29T15:28:32.752Z,27.08
2023-08-29T15:31:37.643Z,27.18
2023-08-29T15:34:40.515Z,27.46
2023-08-29T15:37:43.295Z,27.04
2023-08-29T15:40:50.811Z,27.57
2023-08-29T15:43:54.164Z,27.10
2023-08-29T15:46:57.548Z,27.19
2023-08-29T15:50:00.398Z,27.47
2023-08-29T15:53:03.818Z,26.95
2023-08-29T15:56:06.587Z,26.79
2023-08-29T15:59:09.351Z,26.30
2023-08-29T16:02:13.132Z,26.36
2023-08-29T16:05:16.562Z,26.17
2023-08-29T16:08:19.790Z,26.44
2023-08-29T16:11:22.876Z,26.56
2023-08-29T16:14:27.883Z,26.32
2023-08-29T16:17:34.315Z,26.40
2023-08-29T16:20:41.484Z,26.48
2023-08-29T16:23:46.745Z,26.04
2023-08-29T16:26:49.551Z,26.39
2023-08-29T16:29:56.097Z,26.20
2023-08-29T16:32:58.786Z,25.97
2023-08-29T16:36:02.115Z,25.99
2023-08-29T16:39:06.217Z,25.87
2023-08-29T16:42:09.073Z,25.93
2023-08-29T16:45:11.850Z,26.02
2023-08-29T16:48:14.794Z,25.90
2023-08-29T16:51:18.960Z,25.62
2023-08-29T16:54:25.928Z,25.62
2023-08-29T16:57:28.646Z,25.89
2023-08-29T17:00:32.480Z,25.92
2023-08-29T17:03:36.263Z,25.85
2023-08-29T17:06:39.697Z,25.79
2023-08-29T17:09:44.905Z,25.80
2023-08-29T17:12:48.728Z,25.74
2023-08-29T17:15:51.463Z,25.67
2023-08-29T17:18:56.652Z,25.46
2023-08-29T17:22:00.819Z,25.52
2023-08-29T17:25:04.164Z,25.52
2023-08-29T17:28:07.594Z,25.31
2023-08-29T17:31:11.794Z,25.25
2023-08-29T17:34:14.861Z,25.27
2023-08-29T17:37:18.770Z,25.28
2023-08-29T17:40:22.819Z,25.26
2023-08-29T17:43:26.654Z,25.00
2023-08-29T17:46:30.001Z,25.15
2023-08-29T17:49:33.244Z,25.10
2023-08-29T17:52:36.747Z,24.86
2023-08-29T17:55:40.260Z,24.83
2023-08-29T17:58:43.745Z,24.59
2023-08-29T18:01:47.375Z,24.72
2023-08-29T18:04:51.313Z,24.72
2023-08-29T18:07:54.742Z,24.78
2023-08-29T18:10:57.417Z,24.78
2023-08-29T18:14:00.360Z,24.54
2023-08-29T18:17:03.943Z,24.50
2023-08-29T18:20:07.408Z,24.54
2023-08-29T18:23:10.595Z,24.58
2023-08-29T18:26:14.450Z,24.57
2023-08-29T18:29:17.525Z,24.53
2023-08-29T18:32:20.328Z,24.50
2023-08-29T18:35:23.848Z,24.52
2023-08-29T18:38:26.616Z,24.46
2023-08-29T18:41:29.422Z,24.11
2023-08-29T18:44:32.518Z,24.13
2023-08-29T18:47:35.329Z,24.20
2023-08-29T18:50:40.333Z,24.04
2023-08-29T18:53:43.818Z,23.80
2023-08-29T18:56:50.852Z,24.05
2023-08-29T18:59:54.301Z,24.02
2023-08-29T19:02:58.305Z,24.15
2023-08-29T19:06:01.210Z,24.19
2023-08-29T19:09:04.960Z,24.18
2023-08-29T19:12:08.300Z,23.91
2023-08-29T19:15:11.757Z,23.60
2023-08-29T19:18:15.538Z,23.49
2023-08-29T19:21:19.230Z,23.82
2023-08-29T19:24:22.819Z,23.71
2023-08-29T19:27:28.813Z,23.17
2023-08-29T19:30:31.984Z,23.40
2023-08-29T19:33:34.882Z,23.31
2023-08-29T19:36:37.654Z,23.28
2023-08-29T19:39:43.509Z,23.11
2023-08-29T19:42:46.636Z,23.07
2023-08-29T19:45:50.358Z,22.90
2023-08-29T19:48:53.382Z,22.89
2023-08-29T19:51:57.012Z,22.22
2023-08-29T19:55:00.933Z,22.10
2023-08-29T19:58:03.940Z,22.00
2023-08-29T20:01:07.476Z,21.93
2023-08-29T20:04:10.579Z,22.14
2023-08-29T20:07:13.937Z,21.65
2023-08-29T20:10:17.480Z,22.00
2023-08-29T20:13:20.263Z,21.84
2023-08-29T20:16:23.101Z,21.66
2023-08-29T20:19:26.320Z,21.70
2023-08-29T20:22:29.076Z,21.71
2023-08-29T20:25:33.098Z,21.63
2023-08-29T20:28:36.802Z,21.03
2023-08-29T20:31:40.421Z,20.57
2023-08-29T20:34:43.144Z,20.08
2023-08-29T20:37:46.598Z,20.04
2023-08-29T20:40:50.355Z,19.89
2023-08-29T20:43:53.191Z,20.06
2023-08-29T20:46:56.385Z,19.93
2023-08-29T20:49:59.927Z,20.10
2023-08-29T20:53:02.854Z,20.39
2023-08-29T20:56:06.180Z,20.32
2023-08-29T20:59:09.392Z,20.33
2023-08-29T21:02:12.983Z,20.19
2023-08-29T21:05:15.846Z,20.16
2023-08-29T21:08:19.612Z,20.06
2023-08-29T21:11:22.485Z,20.05
2023-08-29T21:14:25.918Z,20.06
2023-08-29T21:17:30.162Z,20.34
2023-08-29T21:20:38.675Z,20.42
2023-08-29T21:23:42.127Z,20.52
2023-08-29T21:26:44.759Z,20.45
2023-08-29T21:29:50.526Z,20.31
2023-08-29T21:32:53.579Z,20.07
2023-08-29T21:35:56.442Z,19.80
2023-08-29T21:38:59.435Z,19.62
2023-08-29T21:42:02.163Z,19.74
2023-08-29T21:45:05.205Z,19.83
2023-08-29T21:48:10.683Z,19.55
2023-08-29T21:51:17.244Z,19.78
2023-08-29T21:54:20.561Z,19.42
2023-08-29T21:57:24.252Z,19.74
2023-08-29T22:00:27.248Z,19.89
2023-08-29T22:03:30.507Z,19.95
2023-08-29T22:06:36.475Z,19.86
2023-08-29T22:09:40.619Z,19.50
2023-08-29T22:12:43.946Z,19.46
2023-08-29T22:15:49.937Z,19.67
2023-08-29T22:18:53.604Z,19.71
2023-08-29T22:21:56.235Z,19.76
2023-08-29T22:24:58.944Z,19.98
2023-08-29T22:28:01.750Z,19.98
2023-08-29T22:31:05.110Z,19.71
2023-08-29T22:34:07.741Z,19.64
2023-08-29T22:37:11.352Z,19.36
2023-08-29T22:40:14.111Z,19.07
2023-08-29T22:43:17.729Z,19.20
2023-08-29T22:46:21.299Z,19.57
2023-08-29T22:49:24.572Z,19.77
2023-08-29T22:52:27.371Z,19.53
2023-08-29T22:55:31.194Z,19.60
2023-08-29T22:58:34.145Z,19.76
2023-08-29T23:01:38.169Z,19.72
2023-08-29T23:04:40.916Z,19.81
2023-08-29T23:07:44.109Z,19.64
2023-08-29T23:10:46.711Z,19.63
2023-08-29T23:13:50.291Z,19.43
2023-08-29T23:16:53.337Z,19.43
2023-08-29T23:19:56.650Z,19.52
2023-08-29T23:22:59.409Z,19.59
2023-08-29T23:26:02.557Z,19.56
2023-08-29T23:29:05.826Z,19.49
2023-08-29T23:32:08.858Z,19.51
2023-08-29T23:35:13.435Z,19.61
2023-08-29T23:38:17.407Z,19.48
2023-08-29T23:41:20.787Z,19.55
2023-08-29T23:44:23.910Z,19.54
2023-08-29T23:47:26.700Z,19.50
2023-08-29T23:50:30.209Z,19.40
2023-08-29T23:53:33.738Z,19.49
2023-08-29T23:56:36.446Z,19.64
2023-08-29T23:59:39.659Z,19.63
